Terminal Aerodrome Forecast
Issued by NWS

Home | Current Version | Previous Version | Text Only | Print | Product List | Glossary On
Versions: 1 2 3 4 5 6 7 8 9 10 11 12 13 14 15 16 17 18
000
FTUS43 KDVN 282335
TAFCID
TAF
KCID 282335Z 2900/2924 31009KT P6SM SCT025 BKN060
     FM290500 34005KT 4SM BR SCT007 OVC015
     FM291600 35007KT P6SM BKN025
     FM291900 01011KT P6SM BKN035=

USA.gov is the U.S. government's official web portal to all federal, state and local government web resources and services.